KIJX/IJX METAR and TAF weather

Enter ICAO airport designator
Station Type Date Time Source
KIJX METAR 2022/01/27 23:55 UTC NOAA

KIJX 272355Z AUTO 31009KT 10SM BKN029 OVC033 01/M03 A3023 RMK AO2 T00061034 10031 20006


Station Type Date Time Source
KIJX Decoded METAR 2022/01/27 23:55 UTC NOAA

Jacksonville, Jacksonville Municipal Airport, IL, United States (KIJX) 39-46-27N 090-14-19W
Jan 27, 2022 - 06:55 PM EST / 2022.01.27 2355 UTC
Wind: from the NW (310 degrees) at 10 MPH (9 KT):0
Visibility: 10 mile(s):0
Sky conditions: overcast
Temperature: 33.1 F (0.6 C)
Windchill: 24 F (-4 C):1
Dew Point: 25.9 F (-3.4 C)
Relative Humidity: 74%
Pressure (altimeter): 30.23 in. Hg (1023 hPa)
ob: KIJX 272355Z AUTO 31009KT 10SM BKN029 OVC033 01/M03 A3023 RMK AO2 T00061034 10031 20006
cycle: 0

Station Type Date Time Source
KIJX TAF UTC NOAA

Error!

Example: see airport list